Time;durP1;ratioP1;P1;durP2;ratioP2;P2;SDS_P1;SDS_P2;PMS_P1;PMS_P2;Temp;Humidity;BMP_temperature;BMP_pressure;BME280_temperature;BME280_humidity;BME280_pressure;Samples;Min_cycle;Max_cycle;Signal;HPM_P1;HPM_P2
2023/03/29 00:01:29;;;;;;;1.35;1.20;;;23.30;99.90;;;;;;5052493;28;20197;-77
2023/03/29 00:04:01;;;;;;;2.90;1.38;;;23.30;99.90;;;;;;5051101;28;20699;-77
2023/03/29 00:06:35;;;;;;;3.45;1.15;;;23.40;99.90;;;;;;5039094;28;20200;-78
2023/03/29 00:09:08;;;;;;;2.05;1.30;;;23.40;99.90;;;;;;5048457;28;20512;-77
2023/03/29 00:11:39;;;;;;;5.53;1.20;;;23.50;99.90;;;;;;5050242;28;20199;-77
2023/03/29 00:14:10;;;;;;;1.63;1.20;;;23.50;99.90;;;;;;5050293;28;20212;-77
2023/03/29 00:16:43;;;;;;;1.70;1.27;;;23.60;99.90;;;;;;5049502;28;20644;-77
2023/03/29 00:19:14;;;;;;;2.90;1.20;;;23.60;99.90;;;;;;5048530;28;20659;-77
2023/03/29 00:21:47;;;;;;;1.75;1.10;;;23.60;99.90;;;;;;5048786;28;20287;-77
2023/03/29 00:24:19;;;;;;;3.50;1.20;;;23.60;99.90;;;;;;5050768;28;20201;-77
2023/03/29 00:26:50;;;;;;;2.13;1.20;;;23.60;99.90;;;;;;5052081;28;20263;-77
2023/03/29 00:29:21;;;;;;;2.50;1.33;;;23.70;99.90;;;;;;5046862;28;20220;-77
2023/03/29 00:31:54;;;;;;;1.38;1.00;;;23.70;99.90;;;;;;5046210;28;20201;-75
2023/03/29 00:34:29;;;;;;;1.75;1.30;;;23.80;99.90;;;;;;5043381;28;20201;-77
2023/03/29 00:37:07;;;;;;;2.45;1.17;;;23.80;99.90;;;;;;5044897;28;20196;-77
2023/03/29 00:39:40;;;;;;;3.67;1.42;;;23.90;99.90;;;;;;5044001;28;20205;-77
2023/03/29 00:42:15;;;;;;;6.35;1.40;;;23.90;99.90;;;;;;5050773;28;20416;-77
2023/03/29 00:45:01;;;;;;;2.67;1.50;;;23.90;99.90;;;;;;5041446;28;20191;-77
2023/03/29 00:47:37;;;;;;;4.53;1.30;;;23.90;99.90;;;;;;5054038;28;20204;-75
2023/03/29 00:50:13;;;;;;;1.63;1.13;;;24.00;99.90;;;;;;5053146;28;20246;-76
2023/03/29 00:52:50;;;;;;;2.15;1.13;;;24.10;99.90;;;;;;5045679;28;20196;-77
2023/03/29 00:55:29;;;;;;;3.17;1.20;;;24.00;99.90;;;;;;5044420;28;20192;-78
2023/03/29 00:58:00;;;;;;;1.75;1.02;;;24.10;99.90;;;;;;5048310;28;20193;-78
2023/03/29 01:00:35;;;;;;;1.05;0.98;;;24.30;99.90;;;;;;5049997;28;20196;-77
2023/03/29 01:03:13;;;;;;;1.50;0.93;;;24.30;99.90;;;;;;5049215;28;20207;-77
2023/03/29 01:05:47;;;;;;;1.50;1.08;;;24.40;99.90;;;;;;5046477;28;20196;-78
2023/03/29 01:08:25;;;;;;;1.60;1.17;;;24.50;99.90;;;;;;5049860;28;20230;-78
2023/03/29 01:11:00;;;;;;;2.72;1.08;;;24.50;99.90;;;;;;5043444;28;20199;-78
2023/03/29 01:13:41;;;;;;;1.50;1.10;;;24.60;99.90;;;;;;5046220;28;20193;-77
2023/03/29 01:16:17;;;;;;;1.73;1.20;;;24.70;99.90;;;;;;5046186;28;20188;-76
2023/03/29 01:18:48;;;;;;;2.78;1.00;;;24.70;99.90;;;;;;5049456;28;20270;-77
2023/03/29 01:21:25;;;;;;;2.40;1.05;;;24.70;99.90;;;;;;5043721;28;20201;-76
2023/03/29 01:24:18;;;;;;;3.40;1.02;;;24.70;99.90;;;;;;5049237;28;20204;-76
2023/03/29 01:27:00;;;;;;;1.75;1.05;;;24.80;99.90;;;;;;5036709;28;20225;-76
2023/03/29 01:29:37;;;;;;;7.15;1.23;;;24.90;99.90;;;;;;5043963;28;20229;-77
2023/03/29 01:32:13;;;;;;;2.03;1.00;;;24.90;99.90;;;;;;5038443;28;20722;-77
2023/03/29 01:34:50;;;;;;;1.45;1.17;;;25.00;99.90;;;;;;5049967;28;20192;-77
2023/03/29 01:37:25;;;;;;;1.58;1.30;;;25.10;99.90;;;;;;5042414;28;20194;-77
2023/03/29 01:39:56;;;;;;;1.10;1.00;;;25.20;99.90;;;;;;5043197;28;20720;-76
2023/03/29 01:42:45;;;;;;;1.52;0.85;;;25.50;99.90;;;;;;5046654;28;20201;-77
2023/03/29 01:45:27;;;;;;;1.63;0.90;;;25.60;99.90;;;;;;5044871;28;20292;-76
2023/03/29 01:48:04;;;;;;;1.00;0.90;;;25.90;99.90;;;;;;5052462;28;20201;-75
2023/03/29 01:50:43;;;;;;;2.05;0.73;;;26.20;99.90;;;;;;5050846;28;20192;-76
2023/03/29 01:53:19;;;;;;;1.92;0.82;;;26.30;99.90;;;;;;5049658;28;20220;-75
2023/03/29 01:55:54;;;;;;;1.45;0.90;;;26.40;99.90;;;;;;5043851;28;20196;-76
2023/03/29 01:58:30;;;;;;;2.40;0.80;;;26.70;99.90;;;;;;5040168;28;20586;-77
2023/03/29 02:01:04;;;;;;;1.83;0.80;;;26.70;99.90;;;;;;5046232;28;20686;-77
2023/03/29 02:03:41;;;;;;;1.48;0.95;;;26.80;99.90;;;;;;5050047;28;20676;-74
2023/03/29 02:06:13;;;;;;;2.05;0.90;;;26.70;99.90;;;;;;5036640;28;20202;-77
2023/03/29 02:08:46;;;;;;;3.17;0.90;;;26.60;99.90;;;;;;5048177;28;20227;-77
2023/03/29 02:11:17;;;;;;;0.80;0.75;;;26.50;99.90;;;;;;5050352;28;20193;-77
2023/03/29 02:13:48;;;;;;;1.10;0.90;;;26.40;99.90;;;;;;5050579;28;20663;-76
2023/03/29 02:16:22;;;;;;;1.10;0.80;;;26.40;99.90;;;;;;5049773;28;20194;-77
2023/03/29 02:18:55;;;;;;;1.00;0.85;;;26.30;99.90;;;;;;5046386;28;20199;-76
2023/03/29 02:21:32;;;;;;;2.22;1.13;;;26.20;99.90;;;;;;5047495;28;20200;-76
2023/03/29 02:24:06;;;;;;;0.85;0.70;;;26.10;99.90;;;;;;5040263;28;20205;-77
2023/03/29 02:26:38;;;;;;;1.30;1.00;;;26.00;99.90;;;;;;5050099;28;20246;-76
2023/03/29 02:29:09;;;;;;;1.60;1.10;;;25.90;99.90;;;;;;5045612;28;20220;-77
2023/03/29 02:31:46;;;;;;;1.45;1.05;;;26.00;99.90;;;;;;5047154;28;20200;-77
2023/03/29 02:34:23;;;;;;;3.03;1.00;;;26.00;99.90;;;;;;5049301;28;20279;-76
2023/03/29 02:36:57;;;;;;;1.83;1.00;;;26.00;99.90;;;;;;5047765;28;20207;-76
2023/03/29 02:39:30;;;;;;;2.03;1.20;;;25.90;99.90;;;;;;5045640;28;20223;-77
2023/03/29 02:42:02;;;;;;;1.90;1.13;;;25.80;99.90;;;;;;5040903;28;20615;-75
2023/03/29 02:44:39;;;;;;;3.10;1.20;;;25.70;99.90;;;;;;5038146;28;20211;-77
2023/03/29 02:47:18;;;;;;;3.45;1.20;;;25.70;99.90;;;;;;5055863;28;20260;-75
2023/03/29 02:49:50;;;;;;;1.30;1.05;;;25.70;99.90;;;;;;5045565;28;20235;-77
2023/03/29 02:52:28;;;;;;;3.75;1.00;;;25.80;99.90;;;;;;5054758;28;20204;-78
2023/03/29 02:55:01;;;;;;;4.35;1.30;;;25.80;99.90;;;;;;5048960;28;20193;-77
2023/03/29 02:57:34;;;;;;;1.30;1.02;;;25.90;99.90;;;;;;5050402;28;20306;-78
2023/03/29 03:00:08;;;;;;;1.10;1.00;;;26.00;99.90;;;;;;5051749;28;20204;-76
2023/03/29 03:02:42;;;;;;;2.55;1.17;;;26.30;99.90;;;;;;5050368;28;20217;-76
2023/03/29 03:05:13;;;;;;;1.17;1.08;;;26.40;99.90;;;;;;5042938;28;20671;-76
2023/03/29 03:07:47;;;;;;;5.43;1.25;;;26.30;99.90;;;;;;5046110;28;20201;-77
2023/03/29 03:10:18;;;;;;;1.88;1.10;;;26.30;99.90;;;;;;5050461;28;20709;-77
2023/03/29 03:12:49;;;;;;;1.83;1.20;;;26.40;99.90;;;;;;5044914;28;20197;-77
2023/03/29 03:15:21;;;;;;;2.45;1.10;;;26.60;99.90;;;;;;5049186;28;20197;-76
2023/03/29 03:17:54;;;;;;;1.63;1.00;;;26.80;99.90;;;;;;5052446;28;20197;-77
2023/03/29 03:20:25;;;;;;;3.05;1.20;;;27.00;99.90;;;;;;5043712;28;20556;-75
2023/03/29 03:22:56;;;;;;;1.30;1.08;;;27.10;99.90;;;;;;5045648;28;20197;-77
2023/03/29 03:25:27;;;;;;;1.30;1.10;;;27.10;99.90;;;;;;5047107;28;20201;-77
2023/03/29 03:27:58;;;;;;;1.27;1.08;;;26.90;99.90;;;;;;5046616;28;20235;-76
2023/03/29 03:30:30;;;;;;;1.13;1.02;;;27.00;99.90;;;;;;5046540;28;20315;-77
2023/03/29 03:33:03;;;;;;;2.17;1.10;;;26.80;99.90;;;;;;5046267;28;20694;-77
2023/03/29 03:35:34;;;;;;;2.05;1.05;;;26.70;99.90;;;;;;5043914;28;20197;-77
2023/03/29 03:38:06;;;;;;;1.80;0.90;;;26.50;99.90;;;;;;5048042;28;20199;-77
2023/03/29 03:40:37;;;;;;;1.00;0.70;;;26.40;99.90;;;;;;5039383;28;20258;-77
2023/03/29 03:43:08;;;;;;;1.13;0.82;;;26.20;99.90;;;;;;5044162;28;20196;-77
2023/03/29 03:45:40;;;;;;;2.35;0.90;;;26.20;99.90;;;;;;5044089;28;20208;-77
2023/03/29 03:48:13;;;;;;;1.00;0.90;;;26.10;99.90;;;;;;5050156;28;20207;-72
2023/03/29 03:50:44;;;;;;;1.58;0.90;;;26.00;99.90;;;;;;5054613;28;20201;-77
2023/03/29 03:53:15;;;;;;;4.40;1.27;;;26.00;99.90;;;;;;5050816;28;20224;-76
2023/03/29 03:55:50;;;;;;;1.17;0.95;;;26.00;99.90;;;;;;5052733;28;20280;-77
2023/03/29 03:58:21;;;;;;;1.10;0.70;;;26.00;99.90;;;;;;5046374;28;20193;-76
2023/03/29 04:00:53;;;;;;;2.95;0.90;;;26.00;99.90;;;;;;5049503;28;20196;-76
2023/03/29 04:03:26;;;;;;;1.65;0.77;;;25.90;99.90;;;;;;5050901;28;20200;-76
2023/03/29 04:05:58;;;;;;;0.80;0.63;;;25.80;99.90;;;;;;5051569;28;20196;-76
2023/03/29 04:08:29;;;;;;;0.77;0.47;;;25.90;99.90;;;;;;5052032;28;20279;-76
2023/03/29 04:11:01;;;;;;;1.08;0.60;;;26.00;99.90;;;;;;5043286;28;20204;-76
2023/03/29 04:13:32;;;;;;;0.90;0.50;;;26.00;99.90;;;;;;5052197;28;20215;-77
2023/03/29 04:16:05;;;;;;;1.23;0.77;;;26.10;99.90;;;;;;5041610;28;20205;-77
2023/03/29 04:18:38;;;;;;;2.47;0.70;;;26.20;99.90;;;;;;5040514;28;20204;-78
2023/03/29 04:21:10;;;;;;;1.33;0.60;;;26.40;99.90;;;;;;5046054;28;20189;-77
2023/03/29 04:23:41;;;;;;;0.98;0.60;;;26.40;99.90;;;;;;5050831;28;20196;-77
2023/03/29 04:26:12;;;;;;;1.60;0.47;;;26.50;99.90;;;;;;5051661;28;20294;-76
2023/03/29 04:28:44;;;;;;;0.93;0.60;;;26.60;99.90;;;;;;5049458;28;20203;-76
2023/03/29 04:31:16;;;;;;;0.52;0.50;;;26.60;99.90;;;;;;5052531;28;20681;-77
2023/03/29 04:33:50;;;;;;;2.38;0.45;;;26.60;99.90;;;;;;5054978;28;20570;-77
2023/03/29 04:36:22;;;;;;;3.45;0.52;;;26.60;99.90;;;;;;5058457;28;20619;-77
2023/03/29 04:38:55;;;;;;;0.43;0.40;;;26.70;99.90;;;;;;5033144;28;20223;-76
2023/03/29 04:41:26;;;;;;;1.10;0.50;;;26.80;99.90;;;;;;5043241;28;20219;-76
2023/03/29 04:43:57;;;;;;;2.38;0.60;;;26.80;99.90;;;;;;5048458;28;20260;-77
2023/03/29 04:46:28;;;;;;;0.50;0.50;;;26.80;99.90;;;;;;5050711;28;20205;-77
2023/03/29 04:49:02;;;;;;;1.55;0.40;;;26.90;99.90;;;;;;5039384;28;20591;-77
2023/03/29 04:51:33;;;;;;;0.30;0.30;;;26.90;99.90;;;;;;5054792;28;20228;-75
2023/03/29 04:54:06;;;;;;;0.77;0.50;;;27.00;99.90;;;;;;5029948;28;20347;-77
2023/03/29 04:56:37;;;;;;;0.43;0.35;;;27.00;99.90;;;;;;5052680;28;20279;-77
2023/03/29 04:59:08;;;;;;;1.50;0.40;;;27.10;99.90;;;;;;5051958;28;20204;-77
2023/03/29 05:01:41;;;;;;;1.75;0.70;;;27.10;99.90;;;;;;5037993;28;20201;-77
2023/03/29 05:04:15;;;;;;;0.88;0.60;;;27.10;99.90;;;;;;5039856;28;20197;-78
2023/03/29 05:06:46;;;;;;;1.10;0.50;;;27.10;99.90;;;;;;5052448;28;20203;-77
2023/03/29 05:09:17;;;;;;;1.58;0.43;;;27.20;99.90;;;;;;5053637;28;20208;-80
2023/03/29 05:11:48;;;;;;;0.98;0.40;;;27.30;99.90;;;;;;5052720;28;20224;-77
2023/03/29 05:14:19;;;;;;;0.50;0.50;;;27.40;99.90;;;;;;5053191;28;20193;-77
2023/03/29 05:16:50;;;;;;;3.92;0.73;;;27.40;99.90;;;;;;5052087;28;20619;-77
2023/03/29 05:19:25;;;;;;;0.60;0.57;;;27.50;99.90;;;;;;5051433;28;20629;-76
2023/03/29 05:21:56;;;;;;;0.50;0.43;;;27.50;99.90;;;;;;5052004;28;20244;-77
2023/03/29 05:24:27;;;;;;;0.82;0.50;;;27.60;99.90;;;;;;5050336;28;20204;-77
2023/03/29 05:26:58;;;;;;;0.40;0.40;;;27.70;99.90;;;;;;5053261;28;20600;-77
2023/03/29 05:29:31;;;;;;;0.32;0.30;;;27.60;99.90;;;;;;5051935;28;20717;-77
2023/03/29 05:32:02;;;;;;;0.50;0.38;;;27.70;99.90;;;;;;5051674;28;20195;-76
2023/03/29 05:34:35;;;;;;;0.40;0.40;;;27.70;99.90;;;;;;5049281;28;20283;-77
2023/03/29 05:37:06;;;;;;;0.60;0.32;;;27.80;99.90;;;;;;5047553;28;20215;-77
2023/03/29 05:39:38;;;;;;;0.45;0.40;;;27.90;99.90;;;;;;5051044;28;20564;-77
2023/03/29 05:42:12;;;;;;;0.88;0.50;;;27.90;99.90;;;;;;5047887;28;20544;-79
2023/03/29 05:44:43;;;;;;;0.65;0.30;;;27.80;99.90;;;;;;5052616;28;20241;-78
2023/03/29 05:47:14;;;;;;;2.17;0.40;;;27.70;99.90;;;;;;5043962;28;20188;-77
2023/03/29 05:49:47;;;;;;;0.68;0.30;;;27.60;99.90;;;;;;5045622;28;20236;-77
2023/03/29 05:52:18;;;;;;;2.20;0.40;;;27.60;99.90;;;;;;5042423;28;20199;-78
2023/03/29 05:54:50;;;;;;;2.60;0.50;;;27.80;99.90;;;;;;5043303;28;20251;-77
2023/03/29 05:57:21;;;;;;;1.13;0.45;;;27.90;99.90;;;;;;5049725;28;20204;-77
2023/03/29 05:59:52;;;;;;;1.95;0.50;;;28.20;99.90;;;;;;5046819;28;20200;-78
2023/03/29 06:02:23;;;;;;;1.17;0.40;;;28.40;99.90;;;;;;5047439;28;20189;-77
2023/03/29 06:04:57;;;;;;;0.40;0.30;;;28.50;99.90;;;;;;5044755;28;20250;-77
2023/03/29 06:07:28;;;;;;;1.17;0.40;;;28.70;99.90;;;;;;5046435;28;20571;-77
2023/03/29 06:09:59;;;;;;;0.40;0.35;;;29.10;99.90;;;;;;5045724;28;20228;-78
2023/03/29 06:12:30;;;;;;;0.57;0.30;;;29.30;97.50;;;;;;5045907;28;20193;-77
2023/03/29 06:15:03;;;;;;;1.25;0.57;;;29.30;90.40;;;;;;5048229;28;20220;-78
2023/03/29 06:17:34;;;;;;;0.77;0.50;;;29.40;84.90;;;;;;5046266;28;20193;-76
2023/03/29 06:20:09;;;;;;;1.02;0.30;;;29.60;74.30;;;;;;5048900;28;20571;-78
2023/03/29 06:22:41;;;;;;;0.30;0.22;;;29.90;71.60;;;;;;5045807;28;20208;-77
2023/03/29 06:25:12;;;;;;;1.95;0.30;;;29.70;68.00;;;;;;5049216;28;20292;-78
2023/03/29 06:27:45;;;;;;;0.40;0.25;;;29.70;66.10;;;;;;5044840;28;20243;-78
2023/03/29 06:30:17;;;;;;;0.85;0.35;;;29.60;65.90;;;;;;5049930;28;20731;-78
2023/03/29 06:32:49;;;;;;;1.25;0.40;;;29.80;66.00;;;;;;5042340;28;20197;-77
2023/03/29 06:35:22;;;;;;;0.52;0.40;;;29.70;64.50;;;;;;5050461;28;20767;-78
2023/03/29 06:37:53;;;;;;;1.00;0.90;;;29.30;64.70;;;;;;5042586;28;20235;-78
2023/03/29 06:40:24;;;;;;;0.30;0.30;;;28.80;64.70;;;;;;5049376;28;20566;-77
2023/03/29 06:42:56;;;;;;;0.40;0.40;;;28.30;66.50;;;;;;5045889;28;20544;-78
2023/03/29 06:45:28;;;;;;;0.75;0.50;;;28.10;70.50;;;;;;5050109;28;20196;-76
2023/03/29 06:48:02;;;;;;;2.13;0.70;;;27.90;73.80;;;;;;5047284;28;20220;-77
2023/03/29 06:50:35;;;;;;;2.08;0.90;;;27.70;76.50;;;;;;5045031;28;20259;-78
2023/03/29 06:53:07;;;;;;;5.15;1.33;;;27.50;77.70;;;;;;5057696;28;20223;-77
2023/03/29 06:55:38;;;;;;;1.15;0.90;;;27.20;78.70;;;;;;5049518;28;20636;-78
2023/03/29 06:58:09;;;;;;;0.40;0.40;;;27.20;80.00;;;;;;5048292;28;20201;-77
2023/03/29 07:00:41;;;;;;;0.57;0.30;;;27.20;79.80;;;;;;5036575;28;20228;-76
2023/03/29 07:03:18;;;;;;;0.98;0.47;;;27.10;80.10;;;;;;5049204;28;20544;-76
2023/03/29 07:06:00;;;;;;;0.60;0.52;;;26.90;79.90;;;;;;5049061;28;20193;-77
2023/03/29 07:08:33;;;;;;;1.13;0.47;;;26.70;81.60;;;;;;5045673;28;20199;-77
2023/03/29 07:11:04;;;;;;;0.80;0.40;;;26.70;83.20;;;;;;5051776;28;20231;-76
2023/03/29 07:13:37;;;;;;;0.95;0.77;;;26.70;85.50;;;;;;5049264;28;20212;-78
2023/03/29 07:16:11;;;;;;;0.75;0.52;;;26.70;86.10;;;;;;5045637;28;20228;-76
2023/03/29 07:18:42;;;;;;;2.08;0.80;;;26.60;87.50;;;;;;5041487;28;20658;-77
2023/03/29 07:21:16;;;;;;;1.65;0.90;;;26.60;87.80;;;;;;5047359;28;20288;-76
2023/03/29 07:23:47;;;;;;;2.53;1.45;;;26.50;90.50;;;;;;5052710;28;20197;-76
2023/03/29 07:26:19;;;;;;;4.82;2.33;;;26.50;89.90;;;;;;5053467;28;20228;-77
2023/03/29 07:28:50;;;;;;;2.70;1.20;;;26.30;90.70;;;;;;5052185;28;20193;-77
2023/03/29 07:31:21;;;;;;;3.08;1.17;;;26.30;90.90;;;;;;5048876;28;20244;-78
2023/03/29 07:33:53;;;;;;;2.15;0.88;;;26.20;91.30;;;;;;5042026;28;20543;-77
2023/03/29 07:36:27;;;;;;;5.05;2.20;;;26.00;92.00;;;;;;5051696;28;20251;-77
2023/03/29 07:39:00;;;;;;;2.03;1.00;;;26.00;92.40;;;;;;5050216;28;20196;-77
2023/03/29 07:41:31;;;;;;;2.65;2.00;;;25.90;93.20;;;;;;5051459;28;20262;-77
2023/03/29 07:44:07;;;;;;;3.22;1.88;;;25.90;93.60;;;;;;5054887;28;20197;-77
2023/03/29 07:46:38;;;;;;;2.13;1.50;;;25.80;93.90;;;;;;5052886;28;20254;-76
2023/03/29 07:49:10;;;;;;;9.48;6.15;;;25.70;94.40;;;;;;5052035;28;20196;-77
2023/03/29 07:51:43;;;;;;;2.83;1.90;;;25.70;94.60;;;;;;5050795;28;20227;-77
2023/03/29 07:54:14;;;;;;;1.48;0.88;;;25.60;95.20;;;;;;5052143;28;20213;-75
2023/03/29 07:56:45;;;;;;;2.08;1.00;;;25.60;95.90;;;;;;5048827;28;20207;-76
2023/03/29 07:59:16;;;;;;;1.13;0.90;;;25.60;96.60;;;;;;5048326;28;20197;-77
2023/03/29 08:01:47;;;;;;;1.63;0.90;;;25.50;96.90;;;;;;5048047;28;20593;-78
2023/03/29 08:04:19;;;;;;;2.33;1.60;;;25.50;97.60;;;;;;5049568;28;20659;-77
2023/03/29 08:06:53;;;;;;;5.18;2.78;;;25.50;98.90;;;;;;5043749;28;20193;-75
2023/03/29 08:09:24;;;;;;;9.27;4.15;;;25.40;98.80;;;;;;5049261;28;20668;-76
2023/03/29 08:11:56;;;;;;;3.17;2.20;;;25.40;99.50;;;;;;5052467;28;20228;-77
2023/03/29 08:14:27;;;;;;;6.03;2.38;;;25.40;99.60;;;;;;5047619;28;20208;-77
2023/03/29 08:16:58;;;;;;;3.92;2.28;;;25.30;99.90;;;;;;5052835;28;20196;-77
2023/03/29 08:19:30;;;;;;;7.90;3.50;;;25.30;99.90;;;;;;5048648;28;20679;-77
2023/03/29 08:22:03;;;;;;;3.08;1.77;;;25.30;99.90;;;;;;5037316;28;20242;-77
2023/03/29 08:24:34;;;;;;;6.43;2.90;;;25.20;99.90;;;;;;5047840;28;20192;-77
2023/03/29 08:27:05;;;;;;;4.35;2.20;;;25.10;99.90;;;;;;5048124;28;20225;-78
2023/03/29 08:29:37;;;;;;;3.10;1.90;;;25.10;99.90;;;;;;5051308;28;20570;-77
2023/03/29 08:32:08;;;;;;;2.90;1.95;;;25.00;99.90;;;;;;5042698;28;20568;-77
2023/03/29 08:34:39;;;;;;;2.38;1.58;;;25.00;99.90;;;;;;5048095;28;20621;-76
2023/03/29 08:37:12;;;;;;;3.35;1.55;;;25.00;99.90;;;;;;5051489;28;20197;-76
2023/03/29 08:39:43;;;;;;;3.42;2.70;;;25.00;99.90;;;;;;5043536;28;20192;-77
2023/03/29 08:42:38;;;;;;;5.32;2.70;;;24.90;99.90;;;;;;5045888;28;20224;-77
2023/03/29 08:45:16;;;;;;;4.85;2.47;;;24.90;99.90;;;;;;5040722;28;20254;-78
2023/03/29 08:47:58;;;;;;;6.68;2.90;;;24.90;99.90;;;;;;5051467;28;20215;-78
2023/03/29 08:50:38;;;;;;;4.95;2.65;;;24.80;99.90;;;;;;5047529;28;20229;-78
2023/03/29 08:53:19;;;;;;;3.50;2.10;;;24.80;99.90;;;;;;5052141;28;20217;-78
2023/03/29 08:55:53;;;;;;;2.25;1.67;;;24.70;99.90;;;;;;5049935;28;20667;-77
2023/03/29 08:58:28;;;;;;;4.88;2.72;;;24.70;99.90;;;;;;5048681;28;20282;-77
2023/03/29 09:01:02;;;;;;;4.70;2.40;;;24.60;99.90;;;;;;5045904;28;20196;-77
2023/03/29 09:03:36;;;;;;;6.38;2.80;;;24.60;99.90;;;;;;5044642;28;20193;-77
2023/03/29 09:06:10;;;;;;;2.85;2.00;;;24.50;99.90;;;;;;5043747;28;20208;-77
2023/03/29 09:08:44;;;;;;;2.88;1.75;;;24.50;99.90;;;;;;5044667;28;20200;-77
2023/03/29 09:11:30;;;;;;;2.20;1.20;;;24.50;99.90;;;;;;5049989;28;20216;-77
2023/03/29 09:14:21;;;;;;;2.65;1.15;;;24.40;99.90;;;;;;5051225;28;20189;-76
2023/03/29 09:16:57;;;;;;;1.50;0.80;;;24.40;99.90;;;;;;5050283;28;20291;-78
2023/03/29 09:19:37;;;;;;;2.65;1.20;;;24.30;99.90;;;;;;5037029;28;20197;-77
2023/03/29 09:22:17;;;;;;;5.57;1.70;;;24.30;99.90;;;;;;5048747;28;20201;-77
2023/03/29 09:25:00;;;;;;;11.52;4.70;;;24.30;99.90;;;;;;5047433;28;21885;-78
2023/03/29 09:27:35;;;;;;;5.15;2.25;;;24.20;99.90;;;;;;5044852;28;20235;-77
2023/03/29 09:30:24;;;;;;;3.92;1.60;;;24.20;99.90;;;;;;5048362;28;20218;-77
2023/03/29 09:32:57;;;;;;;2.75;1.40;;;24.10;99.90;;;;;;5045561;28;20250;-77
2023/03/29 09:35:32;;;;;;;1.23;1.13;;;24.00;99.90;;;;;;5049378;28;20207;-76
2023/03/29 09:38:04;;;;;;;2.38;1.13;;;24.10;99.90;;;;;;5049689;28;20192;-77
2023/03/29 09:40:43;;;;;;;5.15;2.45;;;24.00;99.90;;;;;;5049646;28;20598;-78
2023/03/29 09:43:17;;;;;;;3.17;1.90;;;24.00;99.90;;;;;;5046458;28;20193;-76
2023/03/29 09:45:55;;;;;;;6.68;2.15;;;24.00;99.90;;;;;;5049531;28;20219;-77
2023/03/29 09:48:26;;;;;;;2.95;1.90;;;24.00;99.90;;;;;;5050936;28;20215;-77
2023/03/29 09:50:58;;;;;;;1.10;1.00;;;24.00;99.90;;;;;;5052146;28;20216;-78
2023/03/29 09:53:29;;;;;;;3.30;1.08;;;24.00;99.90;;;;;;5048710;28;20259;-77
2023/03/29 09:56:05;;;;;;;1.75;1.10;;;24.00;99.90;;;;;;5047072;28;20686;-77
2023/03/29 09:58:36;;;;;;;1.77;0.90;;;23.90;99.90;;;;;;5046438;28;20191;-77
2023/03/29 10:01:09;;;;;;;1.45;0.93;;;23.80;99.90;;;;;;5045725;28;20193;-77
2023/03/29 10:03:43;;;;;;;1.75;1.45;;;23.80;99.90;;;;;;5048051;28;20683;-78
2023/03/29 10:06:15;;;;;;;3.58;1.70;;;23.70;99.90;;;;;;5042395;28;20201;-78
2023/03/29 10:08:53;;;;;;;4.13;1.45;;;23.70;99.90;;;;;;5042415;28;20203;-77
2023/03/29 10:11:31;;;;;;;1.02;0.90;;;23.70;99.90;;;;;;5047854;28;20587;-77
2023/03/29 10:14:06;;;;;;;1.55;1.02;;;23.60;99.90;;;;;;5050422;28;20193;-77
2023/03/29 10:16:40;;;;;;;0.90;0.73;;;23.60;99.90;;;;;;5048149;28;20203;-76
2023/03/29 10:19:25;;;;;;;0.90;0.80;;;23.60;99.90;;;;;;5049227;28;20197;-77
2023/03/29 10:21:57;;;;;;;0.80;0.68;;;23.60;99.90;;;;;;5057711;28;20188;-77
2023/03/29 10:24:33;;;;;;;1.25;0.73;;;23.60;99.90;;;;;;5057086;28;20196;-76
2023/03/29 10:27:09;;;;;;;1.38;0.70;;;23.60;99.90;;;;;;5060105;28;20754;-77
2023/03/29 10:29:49;;;;;;;1.80;0.47;;;23.60;99.90;;;;;;5049599;28;20203;-76
2023/03/29 10:32:28;;;;;;;0.43;0.40;;;23.70;99.90;;;;;;5059494;28;20653;-77
2023/03/29 10:35:08;;;;;;;1.05;0.70;;;23.70;99.90;;;;;;5056713;28;20585;-77
2023/03/29 10:37:46;;;;;;;1.90;0.82;;;23.60;99.90;;;;;;5056423;28;20191;-77
2023/03/29 10:40:33;;;;;;;1.83;0.70;;;23.60;99.90;;;;;;5048364;28;20261;-78
2023/03/29 10:43:16;;;;;;;1.30;0.80;;;23.60;99.90;;;;;;5045366;28;20195;-77
2023/03/29 10:45:49;;;;;;;0.50;0.50;;;23.60;99.90;;;;;;5055628;28;20193;-77
2023/03/29 10:48:21;;;;;;;3.35;0.70;;;23.60;99.90;;;;;;5057735;28;20253;-73
2023/03/29 10:50:53;;;;;;;1.38;0.50;;;23.60;99.90;;;;;;5060602;28;20230;-77
2023/03/29 10:53:28;;;;;;;0.47;0.40;;;23.60;99.90;;;;;;5056668;28;20212;-77
2023/03/29 10:56:09;;;;;;;1.08;0.60;;;23.60;99.90;;;;;;5056443;28;20655;-78
2023/03/29 10:58:54;;;;;;;0.82;0.47;;;23.60;99.90;;;;;;5062621;28;20203;-79
2023/03/29 11:01:33;;;;;;;1.67;0.43;;;23.70;99.90;;;;;;5060505;28;20207;-78
2023/03/29 11:04:17;;;;;;;0.65;0.40;;;23.70;99.90;;;;;;5056777;28;20193;-78
2023/03/29 11:06:54;;;;;;;0.35;0.35;;;23.70;99.90;;;;;;5062152;28;20211;-78
2023/03/29 11:09:39;;;;;;;0.47;0.30;;;23.60;99.90;;;;;;5063923;28;20196;-81
2023/03/29 11:12:15;;;;;;;0.38;0.38;;;23.60;99.90;;;;;;5061334;28;20227;-78
2023/03/29 11:15:02;;;;;;;0.50;0.40;;;23.60;99.90;;;;;;5061661;28;20235;-78
2023/03/29 11:17:51;;;;;;;2.22;0.73;;;23.60;99.90;;;;;;5051133;28;20197;-77
2023/03/29 11:20:35;;;;;;;0.85;0.40;;;23.50;99.90;;;;;;5055460;28;20188;-81
2023/03/29 11:23:20;;;;;;;1.73;0.40;;;23.50;99.90;;;;;;5063336;28;20570;-78
2023/03/29 11:26:01;;;;;;;0.50;0.50;;;23.40;99.90;;;;;;5060606;28;20601;-77
2023/03/29 11:28:40;;;;;;;0.85;0.52;;;23.40;99.90;;;;;;5059789;28;20192;-77
2023/03/29 11:31:25;;;;;;;0.40;0.35;;;23.30;99.90;;;;;;5057912;28;20302;-78
2023/03/29 11:34:07;;;;;;;1.67;0.50;;;23.30;99.90;;;;;;5061581;28;20197;-77
2023/03/29 11:36:49;;;;;;;3.30;0.60;;;23.30;99.90;;;;;;5054999;28;20224;-78
2023/03/29 11:39:32;;;;;;;0.43;0.40;;;23.40;99.90;;;;;;5061354;28;20193;-79
2023/03/29 11:42:09;;;;;;;0.80;0.60;;;23.40;99.90;;;;;;5061549;28;20222;-78
2023/03/29 11:44:43;;;;;;;0.50;0.50;;;23.40;99.90;;;;;;5059095;28;20189;-76
2023/03/29 11:47:20;;;;;;;0.47;0.47;;;23.30;99.90;;;;;;5060099;28;20207;-78
2023/03/29 11:49:56;;;;;;;1.20;0.60;;;23.30;99.90;;;;;;5066922;28;20200;-78
2023/03/29 11:52:31;;;;;;;2.90;0.60;;;23.30;99.90;;;;;;5061817;28;20552;-80
2023/03/29 11:55:06;;;;;;;2.60;0.70;;;23.30;99.90;;;;;;5050818;28;20208;-77
2023/03/29 11:57:40;;;;;;;0.82;0.50;;;23.20;99.90;;;;;;5045993;28;20283;-79
2023/03/29 12:00:18;;;;;;;0.90;0.47;;;23.20;99.90;;;;;;5041119;28;20279;-76
2023/03/29 12:02:57;;;;;;;2.25;0.50;;;23.10;99.90;;;;;;5055726;28;20288;-78
2023/03/29 12:05:33;;;;;;;1.13;0.50;;;23.10;99.90;;;;;;5060705;28;20227;-78
2023/03/29 12:08:09;;;;;;;0.65;0.47;;;23.10;99.90;;;;;;5053675;28;20207;-76
2023/03/29 12:10:45;;;;;;;0.90;0.60;;;23.10;99.90;;;;;;5054132;28;20196;-78
2023/03/29 12:13:22;;;;;;;0.50;0.50;;;23.10;99.90;;;;;;5058112;28;20224;-77
2023/03/29 12:16:02;;;;;;;1.17;0.40;;;23.10;99.90;;;;;;5060024;28;20259;-79
2023/03/29 12:18:41;;;;;;;2.13;0.60;;;23.10;99.90;;;;;;5042752;28;20200;-79
2023/03/29 12:21:16;;;;;;;0.57;0.50;;;23.10;99.90;;;;;;5056609;28;20192;-79
2023/03/29 12:23:48;;;;;;;0.60;0.50;;;23.10;99.90;;;;;;5056190;28;20198;-79
2023/03/29 12:26:50;;;;;;;1.77;0.65;;;23.10;99.90;;;;;;5059240;28;20233;-78
2023/03/29 12:29:39;;;;;;;1.77;0.40;;;23.10;99.90;;;;;;5053190;28;20192;-80
2023/03/29 12:32:28;;;;;;;0.50;0.50;;;23.00;99.90;;;;;;5054612;28;20224;-78
2023/03/29 12:35:19;;;;;;;0.90;0.50;;;23.00;99.90;;;;;;5057083;28;20211;-79
2023/03/29 12:38:02;;;;;;;0.68;0.40;;;22.90;99.90;;;;;;5057891;28;20208;-77
2023/03/29 12:40:42;;;;;;;0.80;0.60;;;22.90;99.90;;;;;;5039238;28;20193;-79
2023/03/29 12:43:22;;;;;;;1.05;0.50;;;22.90;99.90;;;;;;5045769;28;20189;-79
2023/03/29 12:45:56;;;;;;;0.50;0.50;;;22.80;99.90;;;;;;5051835;28;20204;-78
2023/03/29 12:48:29;;;;;;;0.52;0.50;;;22.80;99.90;;;;;;5061779;28;20309;-79
2023/03/29 12:51:05;;;;;;;0.77;0.60;;;22.80;99.90;;;;;;5040639;28;20197;-77
2023/03/29 12:53:38;;;;;;;0.63;0.60;;;22.80;99.90;;;;;;5048015;28;20208;-78
2023/03/29 12:56:15;;;;;;;0.60;0.50;;;22.80;99.90;;;;;;5042362;28;20202;-76
2023/03/29 12:59:07;;;;;;;0.85;0.50;;;22.70;99.90;;;;;;5039576;28;20561;-78
2023/03/29 13:01:40;;;;;;;1.02;0.50;;;22.70;99.90;;;;;;5049918;28;20193;-78
2023/03/29 13:04:20;;;;;;;1.17;0.60;;;22.70;99.90;;;;;;5054117;28;20322;-77
2023/03/29 13:07:04;;;;;;;1.17;0.50;;;22.60;99.90;;;;;;5053142;28;20197;-77
2023/03/29 13:09:37;;;;;;;0.95;0.45;;;22.60;99.90;;;;;;5051386;28;20618;-77
2023/03/29 13:12:20;;;;;;;2.15;0.60;;;22.50;99.90;;;;;;5050062;28;20220;-77
2023/03/29 13:14:54;;;;;;;1.10;0.70;;;22.50;99.90;;;;;;5044034;28;20196;-77
2023/03/29 13:17:35;;;;;;;1.15;0.70;;;22.40;99.90;;;;;;5051235;28;20204;-78
2023/03/29 13:20:36;;;;;;;0.88;0.60;;;22.40;99.90;;;;;;5055239;28;20196;-79
2023/03/29 13:23:33;;;;;;;2.00;0.68;;;22.30;99.90;;;;;;5051899;28;20548;-78
2023/03/29 13:26:18;;;;;;;0.60;0.60;;;22.30;99.90;;;;;;5045266;28;20204;-78
2023/03/29 13:29:07;;;;;;;0.50;0.50;;;22.30;99.90;;;;;;5043042;28;20287;-78